Protégé : Vidéo Thoven Dejardin.

Protégé : Vidéo Thoven Dejardin.

Cette publication est protégée par un mot de passe. Pour la voir, veuillez saisir votre mot de passe ci-dessous :

METAR :

LFQA 031400Z AUTO 10005KT 040V150 9999 ///CB 25/12 Q1003


vue en direct sur l'aérodrome
mentions légales politique de confidentialité
Cochet Concept
cx